Time;durP1;ratioP1;P1;durP2;ratioP2;P2;SDS_P1;SDS_P2;PMS_P1;PMS_P2;Temp;Humidity;BMP_temperature;BMP_pressure;BME280_temperature;BME280_humidity;BME280_pressure;Samples;Min_cycle;Max_cycle;Signal;HPM_P1;HPM_P2
2022/10/21 00:01:04;;;;;;;25.30;16.27;;;;;;;-145.18;100.00;46656.50;5032597;28;20037;-72
2022/10/21 00:03:29;;;;;;;25.93;17.17;;;;;;;-145.18;100.00;46654.53;5032668;28;20057;-72
2022/10/21 00:05:55;;;;;;;27.47;17.13;;;;;;;-145.18;100.00;46656.50;5011912;28;20076;-71
2022/10/21 00:08:21;;;;;;;22.63;16.63;;;;;;;-145.18;100.00;46648.69;5032667;28;20038;-72
2022/10/21 00:10:51;;;;;;;22.80;16.13;;;;;;;-145.18;100.00;46656.50;5032598;28;20052;-72
2022/10/21 00:13:16;;;;;;;23.80;15.60;;;;;;;-145.18;100.00;46652.59;5032036;28;20041;-72
2022/10/21 00:15:42;;;;;;;30.83;14.73;;;;;;;-145.18;100.00;46656.50;5032837;28;20029;-72
2022/10/21 00:18:07;;;;;;;23.73;13.90;;;;;;;-145.18;100.00;46654.53;5032527;28;20533;-72
2022/10/21 00:20:33;;;;;;;30.87;15.30;;;;;;;-145.18;100.00;46654.53;5032353;28;20049;-71
2022/10/21 00:22:58;;;;;;;26.20;14.33;;;;;;;-145.18;100.00;46656.50;5014008;28;20049;-71
2022/10/21 00:25:23;;;;;;;26.23;13.73;;;;;;;-145.18;100.00;46650.63;5031936;28;20048;-71
2022/10/21 00:27:48;;;;;;;25.53;12.57;;;;;;;-145.18;100.00;46652.59;5031849;28;20116;-70
2022/10/21 00:30:14;;;;;;;23.10;10.77;;;;;;;-145.18;100.00;46654.53;5014353;28;20029;-70
2022/10/21 00:32:39;;;;;;;17.63;10.70;;;;;;;-145.18;100.00;46650.63;5031480;28;20040;-70
2022/10/21 00:35:05;;;;;;;19.00;10.03;;;;;;;-145.18;100.00;46648.69;5031962;28;20087;-71
2022/10/21 00:37:31;;;;;;;18.10;10.70;;;;;;;-145.18;100.00;46654.53;5031197;28;20160;-71
2022/10/21 00:39:57;;;;;;;14.30;11.13;;;;;;;-145.18;100.00;46648.69;5031911;28;20052;-71
2022/10/21 00:42:34;;;;;;;18.03;11.23;;;;;;;-145.18;100.00;46656.50;5031216;28;20033;-71
2022/10/21 00:45:06;;;;;;;18.37;11.10;;;;;;;-145.18;100.00;46656.50;5031973;28;20033;-71
2022/10/21 00:47:37;;;;;;;21.00;11.50;;;;;;;-145.18;100.00;46650.63;5031252;28;20064;-71
2022/10/21 00:50:04;;;;;;;22.20;11.30;;;;;;;-145.18;100.00;46654.53;5031323;28;20033;-71
2022/10/21 00:52:33;;;;;;;22.80;11.93;;;;;;;-145.18;100.00;46652.59;5030992;28;20125;-71
2022/10/21 00:55:01;;;;;;;20.63;11.73;;;;;;;-145.18;100.00;46652.59;5013615;28;20116;-71
2022/10/21 00:57:28;;;;;;;15.87;11.10;;;;;;;-145.18;100.00;46654.53;5030942;28;20061;-71
2022/10/21 00:59:59;;;;;;;21.57;11.43;;;;;;;-145.18;100.00;46652.59;5031373;28;20072;-71
2022/10/21 01:02:25;;;;;;;18.83;12.00;;;;;;;-145.18;100.00;46650.63;5030843;28;20033;-71
2022/10/21 01:04:59;;;;;;;19.67;13.17;;;;;;;-145.18;100.00;46650.63;5031329;28;20565;-71
2022/10/21 01:15:31;;;;;;;22.13;12.47;;;;;;;-145.18;100.00;46648.69;5031027;28;20045;-71
2022/10/21 01:18:03;;;;;;;25.50;13.17;;;;;;;-145.18;100.00;46648.69;5029673;28;20656;-71
2022/10/21 01:20:39;;;;;;;25.37;13.93;;;;;;;-145.18;100.00;46650.63;5031017;28;20029;-71
2022/10/21 01:23:33;;;;;;;23.88;13.57;;;;;;;-145.18;100.00;46650.63;5030574;28;20033;-71
2022/10/21 01:26:10;;;;;;;21.67;13.80;;;;;;;-145.18;100.00;46648.69;5031457;28;20061;-71
2022/10/21 01:28:58;;;;;;;26.20;13.87;;;;;;;-145.18;100.00;46654.53;5030950;28;20029;-71
2022/10/21 01:31:40;;;;;;;20.60;13.03;;;;;;;-145.18;100.00;46646.72;5030915;28;20061;-71
2022/10/21 01:34:12;;;;;;;18.03;12.53;;;;;;;-145.18;100.00;46650.63;5031055;28;20105;-71
2022/10/21 01:36:46;;;;;;;22.53;14.40;;;;;;;-145.18;100.00;46648.69;5030560;28;20025;-71
2022/10/21 01:39:36;;;;;;;27.07;13.67;;;;;;;-145.18;100.00;46652.59;5031166;28;20029;-72
2022/10/21 01:42:34;;;;;;;21.17;13.47;;;;;;;-145.18;100.00;46652.59;5030601;28;20026;-71
2022/10/21 01:45:05;;;;;;;25.67;13.80;;;;;;;-145.18;100.00;46650.63;5030458;28;20033;-71
2022/10/21 01:47:34;;;;;;;25.67;13.87;;;;;;;-145.18;100.00;46652.59;5030510;28;20523;-72
2022/10/21 01:50:06;;;;;;;21.90;12.57;;;;;;;-145.18;100.00;46650.63;5030927;28;20029;-72
2022/10/21 01:52:32;;;;;;;21.80;12.73;;;;;;;-145.18;100.00;46652.59;5030418;28;20017;-72
2022/10/21 01:55:05;;;;;;;21.87;13.20;;;;;;;-145.18;100.00;46648.69;5030840;28;20519;-72
2022/10/21 01:57:36;;;;;;;22.30;12.63;;;;;;;-145.18;100.00;46652.59;5030306;28;20033;-72
2022/10/21 02:00:04;;;;;;;19.50;12.17;;;;;;;-145.18;100.00;46654.53;5030651;28;20036;-72
2022/10/21 02:02:32;;;;;;;19.70;12.40;;;;;;;-145.18;100.00;46652.59;5012499;28;20061;-72
2022/10/21 02:05:03;;;;;;;22.57;12.80;;;;;;;-145.18;100.00;46652.59;5030099;28;20053;-72
2022/10/21 02:07:29;;;;;;;18.07;11.70;;;;;;;-145.18;100.00;46652.59;5030240;28;20037;-72
2022/10/21 02:09:54;;;;;;;23.67;12.13;;;;;;;-145.18;100.00;46652.59;5030129;28;20044;-72
2022/10/21 02:12:24;;;;;;;21.10;11.27;;;;;;;-145.18;100.00;46654.53;5030378;28;20466;-72
2022/10/21 02:14:52;;;;;;;19.70;13.37;;;;;;;-145.18;100.00;46654.53;5030221;28;20037;-72
2022/10/21 02:17:19;;;;;;;17.57;10.53;;;;;;;-145.18;100.00;46656.50;5012213;28;20044;-72
2022/10/21 02:19:46;;;;;;;18.57;11.13;;;;;;;-145.18;100.00;46654.53;5030162;28;20164;-72
2022/10/21 02:22:16;;;;;;;19.37;11.10;;;;;;;-145.18;100.00;46646.72;5030022;28;20505;-72
2022/10/21 02:24:51;;;;;;;21.07;11.50;;;;;;;-145.18;100.00;46656.50;5030315;28;20049;-72
2022/10/21 02:27:17;;;;;;;22.13;10.83;;;;;;;-145.18;100.00;46654.53;5030221;28;20434;-72
2022/10/21 02:29:45;;;;;;;17.33;10.33;;;;;;;-145.18;100.00;46652.59;5030287;28;20509;-72
2022/10/21 02:32:35;;;;;;;15.43;10.17;;;;;;;-145.18;100.00;46654.53;5030061;28;20037;-72
2022/10/21 02:35:12;;;;;;;17.27;11.20;;;;;;;-145.18;100.00;46654.53;5029963;28;20051;-72
2022/10/21 02:37:50;;;;;;;17.90;10.80;;;;;;;-145.18;100.00;46652.59;5029577;28;20040;-71
2022/10/21 02:40:39;;;;;;;14.83;10.10;;;;;;;-145.18;100.00;46650.63;5030291;28;20029;-72
2022/10/21 02:43:11;;;;;;;18.40;9.43;;;;;;;-145.18;100.00;46654.53;5029617;28;20039;-72
2022/10/21 02:45:38;;;;;;;20.80;9.47;;;;;;;-145.18;100.00;46656.50;5030406;28;20064;-72
2022/10/21 02:48:04;;;;;;;17.73;10.17;;;;;;;-145.18;100.00;46652.59;5029198;28;20517;-72
2022/10/21 02:50:29;;;;;;;22.50;10.20;;;;;;;-145.18;100.00;46656.50;5030271;28;20033;-71
2022/10/21 02:52:55;;;;;;;21.50;10.33;;;;;;;-145.18;100.00;46656.50;5029434;28;20034;-72
2022/10/21 02:55:20;;;;;;;21.33;11.30;;;;;;;-145.18;100.00;46656.50;5030357;28;20084;-72
2022/10/21 02:57:45;;;;;;;29.40;11.10;;;;;;;-145.18;100.00;46652.59;5029734;28;20057;-71
2022/10/21 03:00:12;;;;;;;17.13;10.00;;;;;;;-145.18;100.00;46654.53;5029718;28;20033;-72
2022/10/21 03:02:37;;;;;;;18.43;9.83;;;;;;;-145.18;100.00;46656.50;5215526;22;20056;-73
2022/10/21 03:05:03;;;;;;;16.37;9.40;;;;;;;-145.18;100.00;46650.63;5046202;28;20622;-74
2022/10/21 03:07:28;;;;;;;15.40;9.60;;;;;;;-145.18;100.00;46656.50;5049630;28;20029;-73
2022/10/21 03:09:53;;;;;;;15.47;9.03;;;;;;;-145.18;100.00;46652.59;5049567;28;20067;-73
2022/10/21 03:12:19;;;;;;;19.53;9.53;;;;;;;-145.18;100.00;46660.41;5049253;28;20037;-73
2022/10/21 03:14:44;;;;;;;19.80;9.93;;;;;;;-145.18;100.00;46654.53;5048332;28;20064;-72
2022/10/21 03:17:09;;;;;;;16.63;9.27;;;;;;;-145.18;100.00;46652.59;5050999;28;20071;-73
2022/10/21 03:19:35;;;;;;;14.23;9.87;;;;;;;-145.18;100.00;46654.53;5053261;28;20493;-73
2022/10/21 03:22:00;;;;;;;18.67;10.07;;;;;;;-145.18;100.00;46654.53;5052787;28;20144;-73
2022/10/21 03:24:25;;;;;;;14.67;9.80;;;;;;;-145.18;100.00;46658.44;5053420;28;20111;-73
2022/10/21 03:26:51;;;;;;;15.23;10.00;;;;;;;-145.18;100.00;46662.34;5052911;28;20041;-72
2022/10/21 03:29:16;;;;;;;17.57;10.67;;;;;;;-145.18;100.00;46662.34;5053095;28;20036;-73
2022/10/21 03:31:42;;;;;;;18.87;11.33;;;;;;;-145.18;100.00;46658.44;5053295;28;20519;-73
2022/10/21 03:34:07;;;;;;;19.90;12.17;;;;;;;-145.18;100.00;46656.50;5053016;28;20044;-73
2022/10/21 03:36:33;;;;;;;18.43;12.37;;;;;;;-145.18;100.00;46656.50;5051792;28;20448;-73
2022/10/21 03:38:58;;;;;;;27.30;14.17;;;;;;;-145.18;100.00;46658.44;5052487;28;20052;-73
2022/10/21 03:41:23;;;;;;;28.23;15.57;;;;;;;-145.18;100.00;46656.50;5052082;28;20033;-73
2022/10/21 03:43:49;;;;;;;37.73;19.20;;;;;;;-145.18;100.00;46662.34;5052323;28;20040;-73
2022/10/21 03:46:14;;;;;;;40.07;22.03;;;;;;;-145.18;100.00;46658.44;5052853;28;20039;-73
2022/10/21 03:48:39;;;;;;;36.50;20.70;;;;;;;-145.18;100.00;46656.50;5052468;28;20041;-73
2022/10/21 03:51:05;;;;;;;41.57;21.33;;;;;;;-145.18;100.00;46654.53;5052712;28;20108;-73
2022/10/21 03:53:30;;;;;;;46.47;23.27;;;;;;;-145.18;100.00;46656.50;5052487;28;20029;-73
2022/10/21 03:55:55;;;;;;;41.47;21.27;;;;;;;-145.18;100.00;46652.59;5052601;28;20389;-73
2022/10/21 03:58:21;;;;;;;40.97;22.00;;;;;;;-145.18;100.00;46660.41;5052326;28;20033;-73
2022/10/21 04:00:51;;;;;;;33.20;19.27;;;;;;;-145.18;100.00;46656.50;5052335;28;20040;-73
2022/10/21 04:03:17;;;;;;;31.50;18.17;;;;;;;-145.18;100.00;46656.50;5070408;28;20048;-73
2022/10/21 04:05:42;;;;;;;26.27;15.77;;;;;;;-145.18;100.00;46654.53;5072761;28;20032;-73
2022/10/21 04:08:07;;;;;;;25.13;15.53;;;;;;;-145.18;100.00;46656.50;5072063;28;20037;-72
2022/10/21 04:10:33;;;;;;;29.07;15.10;;;;;;;-145.18;100.00;46650.63;5072412;28;20040;-73
2022/10/21 04:12:58;;;;;;;24.33;15.30;;;;;;;-145.18;100.00;46662.34;5071894;28;20473;-73
2022/10/21 04:15:23;;;;;;;23.13;14.13;;;;;;;-145.18;100.00;46654.53;5072399;28;20086;-73
2022/10/21 04:17:49;;;;;;;21.70;14.53;;;;;;;-145.18;100.00;46654.53;5071805;28;20037;-73
2022/10/21 04:20:14;;;;;;;23.73;14.10;;;;;;;-145.18;100.00;46656.50;5072362;28;20143;-73
2022/10/21 04:22:39;;;;;;;27.27;14.97;;;;;;;-145.18;100.00;46656.50;5071897;28;20469;-73
2022/10/21 04:25:05;;;;;;;26.07;15.70;;;;;;;-145.18;100.00;46656.50;5071945;28;20647;-73
2022/10/21 04:27:30;;;;;;;26.83;15.30;;;;;;;-145.18;100.00;46654.53;5071439;28;20036;-73
2022/10/21 04:29:56;;;;;;;22.37;14.20;;;;;;;-145.18;100.00;46652.59;5071186;28;20115;-73
2022/10/21 04:32:21;;;;;;;23.23;13.50;;;;;;;-145.18;100.00;46652.59;5071562;28;20032;-73
2022/10/21 04:34:46;;;;;;;27.40;14.80;;;;;;;-145.18;100.00;46654.53;5071831;28;20123;-73
2022/10/21 04:37:12;;;;;;;24.97;14.40;;;;;;;-145.18;100.00;46654.53;5071805;28;20032;-72
2022/10/21 04:39:37;;;;;;;27.73;15.40;;;;;;;-145.18;100.00;46654.53;5068311;28;20052;-73
2022/10/21 04:42:03;;;;;;;24.73;13.50;;;;;;;-145.18;100.00;46656.50;5070596;28;20583;-73
2022/10/21 04:44:28;;;;;;;23.17;13.73;;;;;;;-145.18;100.00;46656.50;5071328;28;20032;-73
2022/10/21 04:46:53;;;;;;;25.63;14.20;;;;;;;-145.18;100.00;46656.50;5070741;28;20068;-73
2022/10/21 04:49:19;;;;;;;27.47;13.53;;;;;;;-145.18;100.00;46654.53;5070760;28;20479;-73
2022/10/21 04:51:44;;;;;;;25.70;13.47;;;;;;;-145.18;100.00;46658.44;5071758;28;20086;-73
2022/10/21 04:54:12;;;;;;;26.13;13.60;;;;;;;-145.18;100.00;46658.44;5071098;28;20032;-73
2022/10/21 04:56:38;;;;;;;24.63;13.33;;;;;;;-145.18;100.00;46658.44;5071382;28;20043;-73
2022/10/21 04:59:03;;;;;;;26.23;13.60;;;;;;;-145.18;100.00;46654.53;5070864;28;20404;-73
2022/10/21 05:01:28;;;;;;;23.37;12.50;;;;;;;-145.18;100.00;46656.50;5071422;28;20369;-72
2022/10/21 05:03:54;;;;;;;24.83;12.87;;;;;;;-145.18;100.00;46654.53;5070577;28;20507;-72
2022/10/21 05:06:19;;;;;;;27.73;14.07;;;;;;;-145.18;100.00;46654.53;5071460;28;20068;-72
2022/10/21 05:08:44;;;;;;;25.27;13.13;;;;;;;-145.18;100.00;46652.59;5070783;28;20037;-72
2022/10/21 05:11:10;;;;;;;23.20;12.17;;;;;;;-145.18;100.00;46656.50;5071059;28;20133;-72
2022/10/21 05:13:35;;;;;;;16.37;11.50;;;;;;;-145.18;100.00;46658.44;5070991;28;20043;-72
2022/10/21 05:16:02;;;;;;;18.33;12.50;;;;;;;-145.18;100.00;46654.53;5081706;28;20064;-73
2022/10/21 05:18:28;;;;;;;22.70;12.00;;;;;;;-145.18;100.00;46656.50;5069259;28;20039;-72
2022/10/21 05:20:54;;;;;;;24.33;11.93;;;;;;;-145.18;100.00;46658.44;5070848;28;20107;-73
2022/10/21 05:23:20;;;;;;;19.83;11.47;;;;;;;-145.18;100.00;46656.50;5070534;28;20032;-72
2022/10/21 05:25:46;;;;;;;22.37;12.43;;;;;;;-145.18;100.00;46658.44;5070579;28;20437;-72
2022/10/21 05:28:12;;;;;;;18.20;10.67;;;;;;;-145.18;100.00;46654.53;5070563;28;20029;-72
2022/10/21 05:30:38;;;;;;;16.00;10.17;;;;;;;-145.18;100.00;46656.50;5070984;28;20112;-72
2022/10/21 05:33:03;;;;;;;25.27;11.80;;;;;;;-145.18;100.00;46658.44;5070297;28;20115;-72
2022/10/21 05:35:29;;;;;;;20.20;11.13;;;;;;;-145.18;100.00;46662.34;5071023;28;20041;-72
2022/10/21 05:37:54;;;;;;;17.43;10.20;;;;;;;-145.18;100.00;46656.50;5069094;28;20047;-73
2022/10/21 05:40:20;;;;;;;18.80;10.60;;;;;;;-145.18;100.00;46660.41;5070599;28;20086;-72
2022/10/21 05:42:45;;;;;;;15.97;9.93;;;;;;;-145.18;100.00;46654.53;5068682;28;20056;-71
2022/10/21 05:45:11;;;;;;;17.37;10.40;;;;;;;-145.18;100.00;46656.50;5066136;28;20045;-72
2022/10/21 05:47:39;;;;;;;17.40;10.33;;;;;;;-145.18;100.00;46662.34;5074330;28;20089;-72
2022/10/21 05:50:06;;;;;;;16.00;9.57;;;;;;;-145.18;100.00;46652.59;5071855;28;20040;-73
2022/10/21 05:52:31;;;;;;;16.93;9.93;;;;;;;-145.18;100.00;46660.41;5069095;28;20472;-72
2022/10/21 05:54:56;;;;;;;15.57;9.27;;;;;;;-145.18;100.00;46658.44;5069456;28;20052;-72
2022/10/21 05:57:22;;;;;;;15.53;8.93;;;;;;;-145.18;100.00;46660.41;5051190;28;20111;-72
2022/10/21 05:59:47;;;;;;;14.27;8.87;;;;;;;-145.18;100.00;46664.31;5069549;28;20043;-72
2022/10/21 06:02:12;;;;;;;20.23;9.27;;;;;;;-145.18;100.00;46660.41;5067404;28;20028;-72
2022/10/21 06:04:38;;;;;;;19.93;8.60;;;;;;;-145.18;100.00;46656.50;5069555;28;20043;-72
2022/10/21 06:07:03;;;;;;;13.50;8.37;;;;;;;-145.18;100.00;46658.44;5074186;28;20071;-72
2022/10/21 06:09:29;;;;;;;18.93;8.40;;;;;;;-145.18;100.00;46662.34;5076933;28;20064;-72
2022/10/21 06:11:56;;;;;;;22.33;8.13;;;;;;;-145.18;100.00;46660.41;5050522;28;20074;-72
2022/10/21 06:14:22;;;;;;;23.17;8.90;;;;;;;-145.18;100.00;46660.41;5066221;28;20413;-72
2022/10/21 06:16:47;;;;;;;15.97;8.60;;;;;;;-145.18;100.00;46658.44;5058575;28;20147;-72
2022/10/21 06:19:12;;;;;;;16.50;8.87;;;;;;;-145.18;100.00;46658.44;5047268;28;20036;-72
2022/10/21 06:21:38;;;;;;;14.97;8.33;;;;;;;-145.18;100.00;46658.44;5050161;28;20044;-72
2022/10/21 06:24:03;;;;;;;16.97;8.93;;;;;;;-145.18;100.00;46660.41;5048155;28;20065;-72
2022/10/21 06:26:28;;;;;;;14.40;8.37;;;;;;;-145.18;100.00;46656.50;5059074;28;20083;-72
2022/10/21 06:28:54;;;;;;;15.83;8.53;;;;;;;-145.18;100.00;46662.34;5048898;28;20064;-72
2022/10/21 06:31:20;;;;;;;16.90;7.43;;;;;;;-145.18;100.00;46660.41;5050319;28;20143;-72
2022/10/21 06:33:46;;;;;;;16.90;9.40;;;;;;;-145.18;100.00;46664.31;5049077;28;20126;-72
2022/10/21 06:36:12;;;;;;;18.47;8.50;;;;;;;-145.18;100.00;46664.31;5069253;28;20508;-72
2022/10/21 06:38:38;;;;;;;14.50;7.60;;;;;;;-145.18;100.00;46662.34;5051314;28;20459;-72
2022/10/21 06:41:06;;;;;;;14.57;7.70;;;;;;;-145.18;100.00;46666.25;5069397;28;20036;-71
2022/10/21 06:43:31;;;;;;;15.00;7.50;;;;;;;-145.18;100.00;46664.31;5069347;28;20095;-72
2022/10/21 06:46:01;;;;;;;16.73;8.50;;;;;;;-145.18;100.00;46662.34;5069260;28;20112;-72
2022/10/21 06:48:26;;;;;;;12.67;7.87;;;;;;;-145.18;100.00;46666.25;5062036;28;20125;-72
2022/10/21 06:51:00;;;;;;;13.77;7.33;;;;;;;-145.18;100.00;46666.25;5058758;28;20120;-72
2022/10/21 06:53:26;;;;;;;12.43;6.70;;;;;;;-145.18;100.00;46664.31;5067381;28;20108;-72
2022/10/21 06:56:01;;;;;;;12.80;7.40;;;;;;;-145.18;100.00;46660.41;5050213;28;20024;-72
2022/10/21 06:58:26;;;;;;;17.60;8.40;;;;;;;-145.18;100.00;46666.25;5067878;28;20040;-72
2022/10/21 07:00:51;;;;;;;11.07;8.10;;;;;;;-145.18;100.00;46666.25;5067288;28;20080;-72
2022/10/21 07:03:17;;;;;;;15.03;8.20;;;;;;;-145.18;100.00;46666.25;5067246;28;20048;-72
2022/10/21 07:05:42;;;;;;;15.07;8.47;;;;;;;-145.18;100.00;46658.44;5068256;28;20068;-72
2022/10/21 07:08:07;;;;;;;13.43;8.27;;;;;;;-145.18;100.00;46666.25;5048788;28;20072;-72
2022/10/21 07:10:33;;;;;;;15.30;7.77;;;;;;;-145.18;100.00;46660.41;5068856;28;20036;-72
2022/10/21 07:12:58;;;;;;;19.70;8.23;;;;;;;-145.18;100.00;46664.31;5067561;28;20044;-72
2022/10/21 07:15:23;;;;;;;18.97;9.23;;;;;;;-145.18;100.00;46666.25;5068589;28;20020;-72
2022/10/21 07:17:49;;;;;;;20.80;9.67;;;;;;;-145.18;100.00;46668.22;5067445;28;20467;-72
2022/10/21 07:20:14;;;;;;;16.83;9.47;;;;;;;-145.18;100.00;46662.34;5061861;28;20140;-72
2022/10/21 07:22:39;;;;;;;16.90;8.70;;;;;;;-145.18;100.00;46666.25;5067885;28;20154;-72
2022/10/21 07:25:07;;;;;;;19.50;8.70;;;;;;;-145.18;100.00;46668.22;5066128;28;20069;-72
2022/10/21 07:27:32;;;;;;;21.30;8.97;;;;;;;-145.18;100.00;46664.31;5066265;28;20036;-72
2022/10/21 07:29:57;;;;;;;16.40;10.17;;;;;;;-145.18;100.00;46664.31;5066172;28;20025;-72
2022/10/21 07:32:23;;;;;;;17.43;9.63;;;;;;;-145.18;100.00;46664.31;5066360;28;20063;-72
2022/10/21 07:34:48;;;;;;;14.13;9.23;;;;;;;-145.18;100.00;46670.16;5067301;28;20071;-72
2022/10/21 07:37:14;;;;;;;23.67;10.83;;;;;;;-145.18;100.00;46662.34;5050248;28;20052;-71
2022/10/21 07:39:39;;;;;;;15.57;8.93;;;;;;;-145.18;100.00;46666.25;5066341;28;20115;-72
2022/10/21 07:42:04;;;;;;;17.40;9.70;;;;;;;-145.18;100.00;46670.16;5067408;28;20027;-72
2022/10/21 07:44:30;;;;;;;18.60;8.93;;;;;;;-145.18;100.00;46668.22;5050263;28;20487;-72
2022/10/21 07:46:55;;;;;;;15.57;9.63;;;;;;;-145.18;100.00;46664.31;5068326;28;20751;-72
2022/10/21 07:49:22;;;;;;;17.63;9.00;;;;;;;-145.18;100.00;46670.16;5049485;28;20079;-72
2022/10/21 07:51:49;;;;;;;16.10;8.37;;;;;;;-145.18;100.00;46668.22;5047697;28;20032;-72
2022/10/21 07:54:14;;;;;;;19.20;8.50;;;;;;;-145.18;100.00;46662.34;5054223;28;20029;-72
2022/10/21 07:56:45;;;;;;;16.17;7.83;;;;;;;-145.18;100.00;46666.25;5066677;28;20051;-72
2022/10/21 07:59:11;;;;;;;18.17;8.90;;;;;;;-145.18;100.00;46666.25;5050880;28;20139;-72
2022/10/21 08:01:39;;;;;;;22.07;8.00;;;;;;;-145.18;100.00;46656.50;5046393;28;20147;-72
2022/10/21 08:04:05;;;;;;;13.70;8.07;;;;;;;-145.18;100.00;46660.41;5058703;28;20049;-72
2022/10/21 08:06:31;;;;;;;14.57;7.90;;;;;;;-145.18;100.00;46668.22;5042848;28;20025;-72
2022/10/21 08:08:57;;;;;;;25.83;8.93;;;;;;;-145.18;100.00;46666.25;5071205;28;20040;-72
2022/10/21 08:11:30;;;;;;;14.17;8.73;;;;;;;-145.18;100.00;46662.34;5071936;28;20094;-72
2022/10/21 08:13:57;;;;;;;16.03;8.80;;;;;;;-145.18;100.00;46666.25;5070954;28;20177;-72
2022/10/21 08:16:23;;;;;;;18.17;8.80;;;;;;;-145.18;100.00;46666.25;5071804;28;20024;-72
2022/10/21 08:18:48;;;;;;;13.70;8.30;;;;;;;-145.18;100.00;46666.25;5071232;28;20102;-72
2022/10/21 08:21:14;;;;;;;20.97;7.77;;;;;;;-145.18;100.00;46668.22;5071602;28;20029;-72
2022/10/21 08:23:40;;;;;;;19.13;9.10;;;;;;;-145.18;100.00;46662.34;5073516;28;20040;-72
2022/10/21 08:26:10;;;;;;;15.17;8.23;;;;;;;-145.18;100.00;46666.25;5070423;28;20037;-71
2022/10/21 08:28:35;;;;;;;15.53;7.73;;;;;;;-145.18;100.00;46662.34;5071388;28;20020;-72
2022/10/21 08:31:21;;;;;;;15.63;7.70;;;;;;;-145.18;100.00;46668.22;5074209;28;20047;-72
2022/10/21 08:33:47;;;;;;;18.17;7.97;;;;;;;-145.18;100.00;46662.34;5069641;28;20136;-72
2022/10/21 08:36:18;;;;;;;16.83;8.57;;;;;;;-145.18;100.00;46672.13;5068435;28;20037;-72
2022/10/21 08:38:44;;;;;;;13.93;8.33;;;;;;;-145.18;100.00;46666.25;5050342;28;20029;-72
2022/10/21 08:41:30;;;;;;;14.03;8.80;;;;;;;-145.18;100.00;46664.31;5067463;28;20042;-72
2022/10/21 08:44:01;;;;;;;21.42;8.43;;;;;;;-145.18;100.00;46664.31;5028959;28;20033;-72
2022/10/21 08:46:34;;;;;;;17.03;7.87;;;;;;;-145.18;100.00;46666.25;5069482;28;20535;-72
2022/10/21 08:49:18;;;;;;;20.77;9.10;;;;;;;-145.18;100.00;46666.25;5070618;28;20021;-72
2022/10/21 08:51:52;;;;;;;17.77;8.70;;;;;;;-145.18;100.00;46666.25;5065101;28;20396;-72
2022/10/21 08:54:23;;;;;;;12.20;6.90;;;;;;;-145.18;100.00;46668.22;5071705;28;20483;-72
2022/10/21 08:56:53;;;;;;;17.83;7.67;;;;;;;-145.18;100.00;46666.25;5063357;28;20036;-72
2022/10/21 08:59:24;;;;;;;16.60;7.10;;;;;;;-145.18;100.00;46664.31;5070284;28;20025;-72
2022/10/21 09:01:55;;;;;;;13.90;6.43;;;;;;;-145.18;100.00;46668.22;5055492;28;20079;-73
2022/10/21 09:04:39;;;;;;;13.67;7.10;;;;;;;-145.18;100.00;46670.16;5066004;28;20129;-72
2022/10/21 09:07:27;;;;;;;23.43;6.90;;;;;;;-145.18;100.00;46677.97;5069500;28;20036;-72
2022/10/21 09:09:59;;;;;;;14.47;6.93;;;;;;;-145.18;100.00;46676.03;5068499;28;20027;-72
2022/10/21 09:12:33;;;;;;;14.30;6.47;;;;;;;-145.18;100.00;46668.22;5069715;28;20040;-72
2022/10/21 09:15:05;;;;;;;19.27;7.60;;;;;;;-145.18;100.00;46672.13;5068994;28;20145;-72
2022/10/21 09:17:49;;;;;;;13.43;6.70;;;;;;;-145.18;100.00;46672.13;5067294;28;20036;-72
2022/10/21 09:20:32;;;;;;;16.37;7.10;;;;;;;-145.18;100.00;46672.13;5059176;28;20029;-72
2022/10/21 09:23:35;;;;;;;11.77;5.87;;;;;;;-145.18;100.00;46676.03;5070170;28;20035;-72
2022/10/21 09:26:06;;;;;;;14.27;6.13;;;;;;;-145.18;100.00;46674.06;5069664;28;20044;-72
2022/10/21 09:28:32;;;;;;;12.93;5.40;;;;;;;-145.18;100.00;46670.16;5054534;28;20115;-72
2022/10/21 09:31:01;;;;;;;10.43;5.17;;;;;;;-145.18;100.00;46672.13;5070204;28;20050;-72
2022/10/21 09:33:33;;;;;;;12.50;4.93;;;;;;;-145.18;100.00;46674.06;5069191;28;20032;-72
2022/10/21 09:36:05;;;;;;;8.47;3.90;;;;;;;-145.18;100.00;46668.22;5071486;28;20036;-72
2022/10/21 09:38:44;;;;;;;9.00;3.43;;;;;;;-145.18;100.00;46679.94;5053727;28;20469;-72
2022/10/21 09:41:21;;;;;;;16.63;4.13;;;;;;;-145.18;100.00;46672.13;5070079;28;20178;-72
2022/10/21 09:43:48;;;;;;;10.47;3.83;;;;;;;-145.18;100.00;46683.84;5069469;28;20029;-72
2022/10/21 09:46:15;;;;;;;12.20;3.63;;;;;;;-145.18;100.00;46674.06;5069196;28;20440;-72
2022/10/21 09:48:45;;;;;;;10.83;3.47;;;;;;;-145.18;100.00;46676.03;5052864;28;20032;-72
2022/10/21 09:51:23;;;;;;;8.80;3.50;;;;;;;-145.18;100.00;46677.97;5057870;28;20086;-73
2022/10/21 09:53:55;;;;;;;6.47;2.70;;;;;;;-145.18;100.00;46679.94;5058291;28;20500;-73
2022/10/21 09:56:32;;;;;;;6.87;2.90;;;;;;;-145.18;100.00;46681.88;5048429;28;20507;-73
2022/10/21 09:59:13;;;;;;;7.30;2.57;;;;;;;-145.18;100.00;46681.88;5057078;28;20058;-72
2022/10/21 10:01:40;;;;;;;4.07;2.37;;;;;;;-145.18;100.00;46681.88;5069718;28;20040;-71
2022/10/21 10:04:21;;;;;;;5.07;2.30;;;;;;;-145.18;100.00;46681.88;5068609;28;20048;-72
2022/10/21 10:06:47;;;;;;;5.57;2.30;;;;;;;-145.18;100.00;46681.88;5069797;28;20060;-72
2022/10/21 10:09:37;;;;;;;5.57;2.20;;;;;;;-145.18;100.00;46679.94;5069385;28;20146;-72
2022/10/21 10:12:10;;;;;;;8.43;2.50;;;;;;;-145.18;100.00;46683.84;5069112;28;20039;-72
2022/10/21 10:14:44;;;;;;;6.80;2.40;;;;;;;-145.18;100.00;46685.78;5063778;28;20029;-72
2022/10/21 10:17:30;;;;;;;8.27;2.47;;;;;;;-145.18;100.00;46685.78;5059525;28;20397;-72
2022/10/21 10:20:07;;;;;;;6.93;2.10;;;;;;;-145.18;100.00;46681.88;5049425;28;20029;-72
2022/10/21 10:22:40;;;;;;;10.77;2.40;;;;;;;-145.18;100.00;46683.84;5054067;28;20029;-72
2022/10/21 10:25:18;;;;;;;7.63;2.60;;;;;;;-145.18;100.00;46689.69;5068815;28;20656;-72
2022/10/21 10:28:01;;;;;;;5.40;2.60;;;;;;;-145.18;100.00;46689.69;5072024;28;20024;-72
2022/10/21 10:30:36;;;;;;;6.07;2.67;;;;;;;-145.18;100.00;46689.69;5073235;28;20028;-72
2022/10/21 10:33:13;;;;;;;7.72;3.15;;;;;;;-145.18;100.00;46691.66;5073411;28;20020;-72
2022/10/21 10:35:49;;;;;;;4.53;2.80;;;;;;;-145.18;100.00;46689.69;5072713;28;20032;-72
2022/10/21 10:38:22;;;;;;;13.70;3.17;;;;;;;-145.18;100.00;46683.84;5072748;28;20484;-72
2022/10/21 10:40:48;;;;;;;6.00;2.17;;;;;;;-145.18;100.00;46687.75;5070024;28;20062;-72
2022/10/21 10:43:25;;;;;;;6.63;2.10;;;;;;;-145.18;100.00;46685.78;5069770;28;20119;-72
2022/10/21 10:46:08;;;;;;;7.30;2.30;;;;;;;-145.18;100.00;46685.78;5070052;28;20044;-73
2022/10/21 10:48:45;;;;;;;6.97;2.20;;;;;;;-145.18;100.00;46689.69;5056018;28;20034;-72
2022/10/21 10:51:24;;;;;;;6.67;2.17;;;;;;;-145.18;100.00;46689.69;5058870;28;20037;-73
2022/10/21 10:54:02;;;;;;;8.10;2.60;;;;;;;-145.18;100.00;46697.50;5051545;28;20036;-73
2022/10/21 10:56:33;;;;;;;6.83;2.80;;;;;;;-145.18;100.00;46697.50;5061022;28;20040;-73
2022/10/21 10:59:22;;;;;;;5.90;2.63;;;;;;;-145.18;100.00;46695.56;5052383;28;20322;-73
2022/10/21 11:01:56;;;;;;;8.00;2.83;;;;;;;-145.18;100.00;46697.50;5066624;28;20028;-73
2022/10/21 11:04:31;;;;;;;4.97;2.60;;;;;;;-145.18;100.00;46699.47;5052802;28;20117;-73
2022/10/21 11:07:07;;;;;;;8.32;3.03;;;;;;;-145.18;100.00;46699.47;5060150;28;20041;-73
2022/10/21 11:09:33;;;;;;;7.07;3.08;;;;;;;-145.18;100.00;46699.47;5055840;28;20614;-74
2022/10/21 11:12:04;;;;;;;7.67;3.13;;;;;;;-145.18;100.00;46701.41;5076339;28;20036;-73
2022/10/21 11:14:29;;;;;;;9.50;3.40;;;;;;;-145.18;100.00;46693.59;5072656;28;20492;-74
2022/10/21 11:17:08;;;;;;;7.40;3.40;;;;;;;-145.18;100.00;46668.22;5072124;28;20032;-74